createdAt,value
2023-03-21T00:00:43.763Z,15.82
2023-03-21T00:03:10.591Z,18.13
2023-03-21T00:05:42.497Z,15.82
2023-03-21T00:08:09.787Z,18.10
2023-03-21T00:10:43.786Z,15.80
2023-03-21T00:13:15.814Z,12.13
2023-03-21T00:18:43.027Z,10.57
2023-03-21T00:24:00.889Z,14.38
2023-03-21T00:26:28.162Z,13.48
2023-03-21T00:28:54.887Z,19.23
2023-03-21T00:31:21.726Z,15.00
2023-03-21T00:33:48.618Z,12.63
2023-03-21T00:36:16.200Z,12.60
2023-03-21T00:38:43.161Z,15.75
2023-03-21T00:41:23.270Z,17.30
2023-03-21T00:43:55.784Z,17.13
2023-03-21T00:46:25.121Z,21.60
2023-03-21T00:48:52.253Z,22.40
2023-03-21T00:51:26.160Z,20.58
2023-03-21T00:53:57.661Z,15.70
2023-03-21T00:56:24.693Z,14.88
2023-03-21T00:58:51.418Z,24.67
2023-03-21T01:01:18.841Z,18.10
2023-03-21T01:03:48.286Z,15.70
2023-03-21T01:06:19.713Z,18.20
2023-03-21T01:08:52.732Z,14.00
2023-03-21T01:11:23.137Z,16.48
2023-03-21T01:13:56.215Z,24.33
2023-03-21T01:16:26.474Z,14.75
2023-03-21T01:18:53.296Z,14.25
2023-03-21T01:21:20.065Z,17.67
2023-03-21T01:23:46.921Z,14.25
2023-03-21T01:26:13.854Z,19.55
2023-03-21T01:28:42.168Z,16.30
2023-03-21T01:31:11.574Z,17.95
2023-03-21T01:33:38.792Z,15.30
2023-03-21T01:36:13.053Z,11.32
2023-03-21T01:38:41.716Z,11.63
2023-03-21T01:41:41.655Z,14.02
2023-03-21T01:44:19.964Z,16.13
2023-03-21T01:47:03.977Z,11.80
2023-03-21T01:49:41.072Z,13.80
2023-03-21T01:52:21.003Z,10.10
2023-03-21T01:54:52.693Z,13.43
2023-03-21T01:57:41.243Z,13.27
2023-03-21T02:00:13.065Z,11.63
2023-03-21T02:02:58.252Z,14.38
2023-03-21T02:05:50.939Z,13.02
2023-03-21T02:08:18.388Z,13.63
2023-03-21T02:10:50.596Z,17.10
2023-03-21T02:13:17.715Z,16.33
2023-03-21T02:15:58.252Z,17.52
2023-03-21T02:18:28.197Z,15.95
2023-03-21T02:21:13.529Z,18.98
2023-03-21T02:24:10.740Z,15.23
2023-03-21T02:27:04.101Z,17.88
2023-03-21T02:29:43.341Z,15.77
2023-03-21T02:32:20.237Z,15.63
2023-03-21T02:35:00.939Z,14.73
2023-03-21T02:37:40.307Z,17.45
2023-03-21T02:40:39.814Z,13.27
2023-03-21T02:43:23.506Z,16.23
2023-03-21T02:45:57.615Z,12.85
2023-03-21T02:49:07.074Z,17.40
2023-03-21T02:51:35.985Z,11.82
2023-03-21T02:54:29.975Z,12.98
2023-03-21T02:56:58.329Z,11.00
2023-03-21T02:59:27.132Z,11.98
2023-03-21T03:01:56.389Z,13.55
2023-03-21T03:04:27.513Z,9.98
2023-03-21T03:07:15.818Z,13.48
2023-03-21T03:09:59.956Z,15.20
2023-03-21T03:13:00.610Z,12.98
2023-03-21T03:15:51.881Z,9.65
2023-03-21T03:18:33.762Z,7.82
2023-03-21T03:21:11.187Z,12.35
2023-03-21T03:24:07.017Z,11.05
2023-03-21T03:26:37.649Z,11.40
2023-03-21T03:29:08.949Z,8.70
2023-03-21T03:31:46.432Z,8.82
2023-03-21T03:34:20.730Z,10.38
2023-03-21T03:36:56.321Z,10.35
2023-03-21T03:39:33.854Z,8.10
2023-03-21T03:42:21.478Z,12.23
2023-03-21T03:44:52.824Z,9.65
2023-03-21T03:47:56.363Z,11.73
2023-03-21T03:50:41.637Z,6.63
2023-03-21T03:53:18.595Z,6.43
2023-03-21T03:55:46.222Z,8.15
2023-03-21T03:58:22.915Z,5.50
2023-03-21T04:00:52.392Z,5.15
2023-03-21T04:03:19.194Z,10.75
2023-03-21T04:05:48.641Z,7.75
2023-03-21T04:08:16.505Z,7.00
2023-03-21T04:10:43.922Z,12.20
2023-03-21T04:13:11.270Z,7.35
2023-03-21T04:15:38.220Z,9.63
2023-03-21T04:18:05.040Z,11.70
2023-03-21T04:20:36.974Z,10.90
2023-03-21T04:23:05.602Z,11.50
2023-03-21T04:25:38.620Z,9.07
2023-03-21T04:28:07.268Z,9.75
2023-03-21T04:30:34.317Z,10.77
2023-03-21T04:33:01.341Z,13.10
2023-03-21T04:35:28.682Z,11.45
2023-03-21T04:37:55.964Z,13.82
2023-03-21T04:40:24.808Z,16.38
2023-03-21T04:42:51.704Z,11.20
2023-03-21T04:45:18.385Z,12.85
2023-03-21T04:47:45.550Z,14.80
2023-03-21T04:50:13.850Z,10.02
2023-03-21T04:52:40.745Z,10.95
2023-03-21T04:55:10.635Z,13.88
2023-03-21T04:57:38.594Z,11.77
2023-03-21T05:00:10.795Z,14.20
2023-03-21T05:02:38.851Z,13.00
2023-03-21T05:05:07.068Z,13.30
2023-03-21T05:07:33.875Z,14.05
2023-03-21T05:10:02.409Z,16.88
2023-03-21T05:12:29.518Z,14.77
2023-03-21T05:14:56.355Z,15.68
2023-03-21T05:17:28.577Z,12.65
2023-03-21T05:19:56.645Z,14.85
2023-03-21T05:22:26.930Z,15.10
2023-03-21T05:24:55.421Z,13.88
2023-03-21T05:27:35.837Z,10.90
2023-03-21T05:30:11.773Z,12.30
2023-03-21T05:32:38.948Z,12.07
2023-03-21T05:35:06.420Z,13.68
2023-03-21T05:37:33.231Z,10.38
2023-03-21T05:40:00.059Z,12.23
2023-03-21T05:42:26.861Z,11.05
2023-03-21T05:44:53.737Z,12.13
2023-03-21T05:47:20.612Z,10.98
2023-03-21T05:49:47.470Z,14.82
2023-03-21T05:52:14.269Z,13.98
2023-03-21T05:54:41.184Z,17.00
2023-03-21T05:57:08.506Z,14.43
2023-03-21T05:59:35.491Z,13.73
2023-03-21T06:02:02.371Z,13.93
2023-03-21T06:04:29.349Z,10.75
2023-03-21T06:06:57.885Z,13.93
2023-03-21T06:09:26.195Z,13.90
2023-03-21T06:11:55.707Z,19.55
2023-03-21T06:14:23.984Z,13.60
2023-03-21T06:16:51.206Z,15.80
2023-03-21T06:19:17.964Z,13.13
2023-03-21T06:21:44.730Z,13.45
2023-03-21T06:24:11.561Z,13.73
2023-03-21T06:26:38.428Z,12.75
2023-03-21T06:29:05.447Z,12.13
2023-03-21T06:31:32.254Z,15.48
2023-03-21T06:33:58.988Z,12.18
2023-03-21T06:36:25.804Z,12.45
2023-03-21T06:38:52.650Z,10.88
2023-03-21T06:41:19.493Z,12.55
2023-03-21T06:43:46.403Z,14.98
2023-03-21T06:46:13.115Z,10.10
2023-03-21T06:48:44.541Z,9.95
2023-03-21T06:51:12.874Z,13.80
2023-03-21T06:53:39.836Z,10.70
2023-03-21T06:56:06.856Z,9.38
2023-03-21T06:58:33.562Z,13.20
2023-03-21T07:01:01.839Z,7.60
2023-03-21T07:03:29.253Z,9.77
2023-03-21T07:05:56.247Z,9.40
2023-03-21T07:08:23.032Z,11.02
2023-03-21T07:10:49.937Z,6.80
2023-03-21T07:13:16.787Z,13.43
2023-03-21T07:15:43.515Z,9.43
2023-03-21T07:18:10.493Z,14.55
2023-03-21T07:20:38.243Z,10.98
2023-03-21T07:23:05.854Z,7.60
2023-03-21T07:25:32.787Z,9.20
2023-03-21T07:27:59.560Z,12.10
2023-03-21T07:30:26.389Z,9.68
2023-03-21T07:32:53.544Z,9.02
2023-03-21T07:35:20.533Z,7.25
2023-03-21T07:37:47.243Z,11.15
2023-03-21T07:40:14.068Z,7.97
2023-03-21T07:42:41.538Z,9.07
2023-03-21T07:45:09.815Z,7.00
2023-03-21T07:47:37.048Z,8.13
2023-03-21T07:50:04.656Z,8.45
2023-03-21T07:52:32.039Z,10.50
2023-03-21T07:54:59.125Z,10.45
2023-03-21T07:57:26.236Z,7.20
2023-03-21T07:59:53.006Z,9.02
2023-03-21T08:02:19.774Z,8.40
2023-03-21T08:04:46.892Z,8.30
2023-03-21T08:07:13.979Z,5.18
2023-03-21T08:09:40.933Z,4.68
2023-03-21T08:12:10.809Z,5.95
2023-03-21T08:14:37.900Z,6.00
2023-03-21T08:17:05.898Z,5.53
2023-03-21T08:19:32.829Z,10.90
2023-03-21T08:21:59.998Z,8.43
2023-03-21T08:24:28.285Z,7.32
2023-03-21T08:26:54.992Z,7.03
2023-03-21T08:29:21.993Z,20.80
2023-03-21T08:31:48.917Z,9.15
2023-03-21T08:34:15.658Z,7.57
2023-03-21T08:36:42.330Z,5.38
2023-03-21T08:39:09.007Z,6.07
2023-03-21T08:41:37.486Z,8.80
2023-03-21T08:44:06.465Z,3.25
2023-03-21T08:46:33.780Z,6.10
2023-03-21T08:49:00.497Z,3.35
2023-03-21T08:51:27.375Z,3.00
2023-03-21T08:53:54.097Z,3.72
2023-03-21T08:56:20.770Z,3.88
2023-03-21T08:58:47.568Z,3.90
2023-03-21T09:01:15.947Z,5.47
2023-03-21T09:03:43.639Z,4.82
2023-03-21T09:06:14.307Z,3.58
2023-03-21T09:08:42.158Z,7.03
2023-03-21T09:11:10.444Z,5.85
2023-03-21T09:13:37.242Z,5.38
2023-03-21T09:16:05.356Z,3.83
2023-03-21T09:18:49.000Z,3.90
2023-03-21T09:21:18.550Z,6.10
2023-03-21T09:23:47.122Z,6.53
2023-03-21T09:26:14.001Z,4.22
2023-03-21T09:28:40.971Z,3.35
2023-03-21T09:31:12.368Z,4.97
2023-03-21T09:33:42.721Z,8.35
2023-03-21T09:36:14.512Z,6.28
2023-03-21T09:38:45.139Z,3.75
2023-03-21T09:41:17.758Z,8.10
2023-03-21T09:44:23.008Z,4.25
2023-03-21T09:46:58.437Z,2.72
2023-03-21T09:49:32.984Z,1.77
2023-03-21T09:52:03.675Z,3.80
2023-03-21T09:54:33.933Z,1.48
2023-03-21T09:57:24.948Z,3.53
2023-03-21T09:59:54.955Z,4.47
2023-03-21T10:02:47.262Z,2.08
2023-03-21T10:05:27.194Z,3.38
2023-03-21T10:08:09.008Z,4.38
2023-03-21T10:10:46.518Z,2.97
2023-03-21T10:13:35.494Z,2.63
2023-03-21T10:16:14.265Z,4.95
2023-03-21T10:18:42.989Z,6.30
2023-03-21T10:21:37.365Z,8.68
2023-03-21T10:26:31.066Z,2.75
2023-03-21T10:29:03.484Z,3.13
2023-03-21T10:31:31.236Z,6.10
2023-03-21T10:34:02.644Z,3.72
2023-03-21T10:36:32.929Z,3.50
2023-03-21T10:39:05.222Z,2.75
2023-03-21T10:41:32.678Z,3.77
2023-03-21T10:44:11.936Z,4.15
2023-03-21T10:46:38.815Z,3.65
2023-03-21T10:49:08.203Z,11.30
2023-03-21T10:51:37.961Z,8.02
2023-03-21T10:54:13.666Z,2.25
2023-03-21T10:56:53.549Z,2.95
2023-03-21T10:59:23.425Z,4.78
2023-03-21T11:01:52.458Z,2.75
2023-03-21T11:04:27.949Z,2.67
2023-03-21T11:06:57.732Z,5.43
2023-03-21T11:09:27.959Z,5.25
2023-03-21T11:12:10.576Z,7.68
2023-03-21T11:14:41.757Z,7.37
2023-03-21T11:17:23.853Z,5.38
2023-03-21T11:19:58.508Z,5.30
2023-03-21T11:22:30.521Z,6.60
2023-03-21T11:25:01.097Z,7.60
2023-03-21T11:27:30.541Z,6.88
2023-03-21T11:30:00.046Z,8.07
2023-03-21T11:32:38.620Z,4.22
2023-03-21T11:35:19.882Z,10.82
2023-03-21T11:37:53.295Z,8.13
2023-03-21T11:40:20.176Z,6.93
2023-03-21T11:42:53.001Z,4.70
2023-03-21T11:45:24.072Z,9.02
2023-03-21T11:47:54.005Z,6.43
2023-03-21T11:50:42.857Z,5.35
2023-03-21T11:53:15.553Z,7.03
2023-03-21T11:56:02.010Z,6.32
2023-03-21T11:58:38.584Z,5.78
2023-03-21T12:01:29.946Z,3.47
2023-03-21T12:04:27.409Z,3.58
2023-03-21T12:07:00.763Z,4.25
2023-03-21T12:09:27.428Z,3.08
2023-03-21T12:12:37.919Z,1.52
2023-03-21T12:15:06.223Z,3.80
2023-03-21T12:17:57.760Z,4.72
2023-03-21T12:20:52.793Z,7.18
2023-03-21T12:23:25.629Z,3.28
2023-03-21T12:26:10.658Z,4.88
2023-03-21T12:28:50.330Z,3.28
2023-03-21T12:31:45.217Z,3.83
2023-03-21T12:34:19.831Z,2.15
2023-03-21T12:37:08.325Z,3.30
2023-03-21T12:39:40.528Z,2.97
2023-03-21T12:42:11.835Z,4.77
2023-03-21T12:44:44.615Z,4.20
2023-03-21T12:47:17.909Z,3.30
2023-03-21T12:49:55.436Z,3.25
2023-03-21T12:52:27.455Z,1.52
2023-03-21T12:55:01.976Z,4.28
2023-03-21T12:58:04.453Z,4.05
2023-03-21T13:00:49.882Z,7.80
2023-03-21T13:03:19.597Z,4.15
2023-03-21T13:05:58.410Z,5.43
2023-03-21T13:08:46.721Z,6.25
2023-03-21T13:11:17.972Z,7.18
2023-03-21T13:14:00.178Z,6.60
2023-03-21T13:16:29.523Z,9.40
2023-03-21T13:19:14.540Z,5.50
2023-03-21T13:21:44.146Z,10.48
2023-03-21T13:24:29.140Z,7.85
2023-03-21T13:27:02.580Z,4.22
2023-03-21T13:29:33.470Z,6.25
2023-03-21T13:32:31.284Z,5.47
2023-03-21T13:35:30.061Z,5.10
2023-03-21T13:38:17.420Z,10.55
2023-03-21T13:40:48.682Z,5.97
2023-03-21T13:43:43.311Z,6.28
2023-03-21T13:46:26.802Z,6.05
2023-03-21T13:48:58.752Z,9.15
2023-03-21T13:51:29.303Z,5.05
2023-03-21T13:54:04.565Z,6.80
2023-03-21T13:56:52.713Z,6.78
2023-03-21T13:59:38.130Z,7.90
2023-03-21T14:02:23.333Z,5.22
2023-03-21T14:05:21.465Z,9.68
2023-03-21T14:07:52.847Z,9.18
2023-03-21T14:10:31.230Z,10.90
2023-03-21T14:12:59.112Z,7.55
2023-03-21T14:15:56.428Z,6.53
2023-03-21T14:21:24.946Z,5.38
2023-03-21T14:24:04.202Z,6.10
2023-03-21T14:26:46.004Z,8.60
2023-03-21T14:29:35.061Z,8.60
2023-03-21T14:32:02.852Z,9.10
2023-03-21T14:34:33.500Z,9.23
2023-03-21T14:37:00.437Z,8.15
2023-03-21T14:39:30.914Z,6.60
2023-03-21T14:42:05.155Z,4.65
2023-03-21T14:44:56.201Z,10.13
2023-03-21T14:47:26.411Z,6.88
2023-03-21T14:49:53.752Z,6.70
2023-03-21T14:52:31.809Z,7.43
2023-03-21T14:55:00.105Z,10.07
2023-03-21T14:57:31.061Z,8.30
2023-03-21T15:00:02.059Z,7.30
2023-03-21T15:02:34.629Z,9.15
2023-03-21T15:05:38.004Z,6.35
2023-03-21T15:08:15.621Z,9.07
2023-03-21T15:11:05.954Z,5.82
2023-03-21T15:13:34.654Z,4.60
2023-03-21T15:16:01.595Z,5.40
2023-03-21T15:18:33.569Z,3.63
2023-03-21T15:21:10.569Z,10.77
2023-03-21T15:23:42.477Z,7.63
2023-03-21T15:26:17.366Z,8.80
2023-03-21T15:28:46.995Z,7.60
2023-03-21T15:31:20.561Z,7.53
2023-03-21T15:33:49.199Z,6.80
2023-03-21T15:36:22.338Z,6.50
2023-03-21T15:41:19.455Z,5.10
2023-03-21T15:44:01.735Z,5.80
2023-03-21T15:46:45.511Z,1.67
2023-03-21T15:49:15.627Z,4.15
2023-03-21T15:51:46.297Z,5.32
2023-03-21T15:54:41.291Z,5.63
2023-03-21T15:57:21.780Z,4.72
2023-03-21T15:59:49.127Z,4.63
2023-03-21T16:02:24.634Z,6.32
2023-03-21T16:04:59.852Z,4.13
2023-03-21T16:07:27.015Z,8.30
2023-03-21T16:10:00.510Z,6.20
2023-03-21T16:12:27.765Z,7.07
2023-03-21T16:14:55.636Z,6.93
2023-03-21T16:17:39.813Z,6.20
2023-03-21T16:20:35.763Z,6.22
2023-03-21T16:23:02.984Z,6.40
2023-03-21T16:25:30.687Z,10.13
2023-03-21T16:27:57.493Z,5.03
2023-03-21T16:30:24.883Z,3.80
2023-03-21T16:32:51.999Z,4.00
2023-03-21T16:35:18.850Z,8.25
2023-03-21T16:37:48.437Z,5.80
2023-03-21T16:40:24.304Z,11.07
2023-03-21T16:42:51.127Z,9.32
2023-03-21T16:45:17.951Z,7.88
2023-03-21T16:47:45.533Z,8.00
2023-03-21T16:50:28.523Z,5.65
2023-03-21T16:52:56.344Z,5.28
2023-03-21T16:55:23.404Z,6.47
2023-03-21T16:57:53.876Z,9.25
2023-03-21T17:00:24.383Z,7.72
2023-03-21T17:02:53.556Z,8.30
2023-03-21T17:05:27.749Z,7.32
2023-03-21T17:07:55.044Z,9.10
2023-03-21T17:10:26.610Z,7.60
2023-03-21T17:12:53.602Z,10.52
2023-03-21T17:15:20.972Z,7.15
2023-03-21T17:17:50.157Z,6.32
2023-03-21T17:20:21.495Z,7.53
2023-03-21T17:22:48.940Z,7.80
2023-03-21T17:25:17.454Z,10.35
2023-03-21T17:27:44.910Z,8.57
2023-03-21T17:30:22.725Z,8.20
2023-03-21T17:32:50.958Z,4.82
2023-03-21T17:35:18.179Z,15.05
2023-03-21T17:37:50.482Z,9.68
2023-03-21T17:40:23.017Z,7.87
2023-03-21T17:42:51.623Z,9.98
2023-03-21T17:45:19.383Z,9.23
2023-03-21T17:47:46.887Z,6.88
2023-03-21T17:50:21.165Z,4.53
2023-03-21T17:52:50.640Z,7.22
2023-03-21T17:55:19.710Z,7.25
2023-03-21T17:57:47.111Z,6.53
2023-03-21T18:00:25.881Z,6.78
2023-03-21T18:02:53.338Z,7.20
2023-03-21T18:05:21.634Z,7.82
2023-03-21T18:10:37.157Z,6.60
2023-03-21T18:13:04.024Z,7.47
2023-03-21T18:15:31.215Z,7.68
2023-03-21T18:17:58.559Z,5.20
2023-03-21T18:20:49.870Z,5.47
2023-03-21T18:23:15.507Z,5.85
2023-03-21T18:25:42.252Z,7.00
2023-03-21T18:28:12.009Z,8.23
2023-03-21T18:33:27.555Z,5.20
2023-03-21T18:35:59.100Z,9.38
2023-03-21T18:38:27.850Z,11.27
2023-03-21T18:40:55.490Z,8.55
2023-03-21T18:46:09.348Z,6.25
2023-03-21T18:48:36.724Z,7.80
2023-03-21T18:51:04.214Z,4.68
2023-03-21T18:53:31.102Z,6.35
2023-03-21T18:55:57.903Z,5.22
2023-03-21T18:58:25.653Z,5.00
2023-03-21T19:00:54.038Z,6.03
2023-03-21T19:03:35.211Z,7.90
2023-03-21T19:06:04.159Z,7.93
2023-03-21T19:08:31.273Z,6.57
2023-03-21T19:11:03.333Z,8.95
2023-03-21T19:13:33.676Z,7.13
2023-03-21T19:16:02.430Z,8.88
2023-03-21T19:18:53.018Z,5.47
2023-03-21T19:21:19.385Z,10.10
2023-03-21T19:26:33.446Z,5.05
2023-03-21T19:29:00.115Z,4.82
2023-03-21T19:31:27.303Z,5.68
2023-03-21T19:33:54.130Z,4.82
2023-03-21T19:36:22.676Z,8.88
2023-03-21T19:38:50.636Z,4.68
2023-03-21T19:41:18.297Z,7.00
2023-03-21T19:43:53.623Z,6.18
2023-03-21T19:46:24.972Z,6.65
2023-03-21T19:48:56.122Z,7.53
2023-03-21T19:51:28.823Z,4.85
2023-03-21T19:53:57.626Z,4.90
2023-03-21T19:56:26.984Z,3.90
2023-03-21T19:58:55.327Z,4.43
2023-03-21T20:01:23.113Z,4.82
2023-03-21T20:03:50.054Z,6.55
2023-03-21T20:06:16.865Z,8.80
2023-03-21T20:09:13.729Z,9.77
2023-03-21T20:11:30.341Z,7.55
2023-03-21T20:13:58.485Z,7.80
2023-03-21T20:16:25.373Z,9.70
2023-03-21T20:18:52.648Z,6.93
2023-03-21T20:21:25.428Z,6.57
2023-03-21T20:26:19.592Z,10.13
2023-03-21T20:28:56.461Z,7.20
2023-03-21T20:31:30.850Z,8.40
2023-03-21T20:33:57.671Z,11.30
2023-03-21T20:36:38.795Z,10.15
2023-03-21T20:39:06.848Z,6.95
2023-03-21T20:41:33.655Z,6.75
2023-03-21T20:46:49.940Z,6.03
2023-03-21T20:49:16.854Z,6.35
2023-03-21T20:54:31.632Z,5.45
2023-03-21T20:56:58.325Z,6.22
2023-03-21T20:59:27.915Z,7.45
2023-03-21T21:01:57.554Z,5.43
2023-03-21T21:04:44.195Z,10.77
2023-03-21T21:07:15.950Z,7.57
2023-03-21T21:09:44.746Z,8.30
2023-03-21T21:12:14.009Z,11.93
2023-03-21T21:14:41.860Z,7.50
2023-03-21T21:19:56.897Z,7.57
2023-03-21T21:22:23.658Z,14.90
2023-03-21T21:24:50.353Z,6.82
2023-03-21T21:27:17.121Z,9.95
2023-03-21T21:29:47.767Z,6.88
2023-03-21T21:32:17.120Z,12.10
2023-03-21T21:34:44.106Z,7.55
2023-03-21T21:37:10.786Z,9.75
2023-03-21T21:39:38.693Z,9.35
2023-03-21T21:42:05.856Z,15.07
2023-03-21T21:44:32.590Z,9.25
2023-03-21T21:46:59.515Z,11.02
2023-03-21T21:49:27.101Z,9.60
2023-03-21T21:51:53.867Z,9.93
2023-03-21T21:54:20.581Z,7.95
2023-03-21T21:56:54.295Z,10.38
2023-03-21T21:59:22.388Z,8.45
2023-03-21T22:01:51.433Z,13.48
2023-03-21T22:04:27.944Z,9.13
2023-03-21T22:06:57.731Z,8.88
2023-03-21T22:09:24.421Z,9.85
2023-03-21T22:11:51.482Z,10.15
2023-03-21T22:14:18.191Z,12.23
2023-03-21T22:16:46.850Z,16.27
2023-03-21T22:19:13.784Z,12.23
2023-03-21T22:21:40.742Z,15.50
2023-03-21T22:24:07.584Z,11.02
2023-03-21T22:26:34.413Z,15.48
2023-03-21T22:29:01.817Z,17.35
2023-03-21T22:31:28.724Z,12.65
2023-03-21T22:33:55.543Z,17.35
2023-03-21T22:36:22.201Z,17.35
2023-03-21T22:38:48.885Z,14.48
2023-03-21T22:41:15.643Z,17.50
2023-03-21T22:43:42.364Z,14.30
2023-03-21T22:46:09.140Z,15.25
2023-03-21T22:48:36.057Z,28.13
2023-03-21T22:51:02.780Z,14.45
2023-03-21T22:53:29.645Z,22.67
2023-03-21T22:55:56.384Z,18.27
2023-03-21T22:58:23.677Z,16.95
2023-03-21T23:00:50.504Z,16.25
2023-03-21T23:03:17.457Z,15.75
2023-03-21T23:05:45.768Z,22.73
2023-03-21T23:08:13.452Z,21.17
2023-03-21T23:10:43.917Z,20.33
2023-03-21T23:13:10.968Z,25.08
2023-03-21T23:15:41.221Z,22.15
2023-03-21T23:18:08.123Z,30.40
2023-03-21T23:20:35.108Z,28.17
2023-03-21T23:23:02.159Z,19.38
2023-03-21T23:25:34.179Z,12.85
2023-03-21T23:28:01.036Z,21.65
2023-03-21T23:30:27.780Z,19.30
2023-03-21T23:32:54.477Z,15.15
2023-03-21T23:35:21.431Z,17.30
2023-03-21T23:37:50.246Z,23.85
2023-03-21T23:40:17.037Z,20.70
2023-03-21T23:42:43.786Z,20.40
2023-03-21T23:45:11.146Z,17.60
2023-03-21T23:47:39.338Z,17.88
2023-03-21T23:50:07.926Z,19.25
2023-03-21T23:52:34.748Z,13.00
2023-03-21T23:55:01.449Z,23.88
2023-03-21T23:57:28.198Z,20.33
2023-03-21T23:59:55.907Z,15.95
